Lampedusa Airport LICD

Flugplatz Daten

Name: Lampedusa Airport

Ident: LICD

Lat: 35,4978981

Long: 12,61810017

Platzhöhe: 70 ft

IataCode: LMP

City: Lampedusa

Metar

2021/08/05 14:50
LICD 051450Z AUTO 36013KT 9999 NCD 29/24 Q1012

Taf

2021/08/05 12:21
TAF LICD 051100Z 0512/0612 35016KT CAVOK
Gewünschte Webcam nicht vorhanden? Dann fügen Sie eine hinzu. Sie wird dann so schnell wie möglich freigeschaltet
Url: Title: